Pemaquid Point Lighthouse, ME

43° 50' 13"N, 69° 30' 22"W, Elevation 40 ft.
Eastern Time

Hourly observations for the last 72 hours

Date Time Temperature (°F) Humi-
dity

(%)
Wind
(mph)
Pressure Rain (in) Sun
(W/m2)
UV ET
(in)
Air Dew 6 Hour 1 Hr 3 Hr 6 Hr Day
Alt
(in)
Sea
Level

(mb)
Max Min
28 07:00 61.3 60.7 98 W 5 G 8 29.79 1008.8 0.00 32 0.0 0.000
28 06:00 58.9 58.1 97 W 2 G 4 29.79 1008.7 0.00 21 0.0 0.000
28 05:00 59.9 59.0 97 W 4 G 7 29.78 1008.4 0.00 0 0.0 0.000
28 04:00 61.2 60.6 98 W 5 G 8 29.76 1008.0 0.00 0 0.0 0.000
28 03:00 61.3 60.4 97 W 8 G 9 29.76 1007.9 0.00 0 0.0 0.000
28 02:00 60.4 59.8 62.2 59.9 98 WSW 3 G 7 29.77 1008.1 0.00 0 0.0 0.000
28 01:00 61.1 60.2 97 W 4 G 10 29.78 1008.7 0.00 0 0.0 0.000
28 00:00 61.9 61.0 97 W 6 G 15 29.79 1008.7 0.02 0 0.0 0.082
27 23:00 61.6 60.7 97 W 8 G 15 29.79 1008.8 0.02 0 0.0 0.082
27 22:00 61.6 60.4 96 W 10 G 16 29.80 1009.0 0.02 0 0.0 0.082
27 21:00 61.6 60.4 96 W 7 G 13 29.81 1009.4 0.02 0 0.0 0.082
27 20:00 61.6 59.9 65.4 61.4 94 SW 5 G 9 29.81 1009.5 0.02 21 0.0 0.081
27 19:00 61.6 60.2 95 WSW 7 G 13 29.81 1009.4 0.02 46 0.0 0.079
27 18:00 62.2 59.8 92 SW 11 G 15 29.81 1009.4 0.02 139 0.7 0.074
27 17:00 63.2 60.2 90 SSW 14 G 18 29.82 1009.8 0.02 367 1.7 0.066
27 16:00 63.4 60.1 89 SSW 15 G 18 29.84 1010.4 0.02 367 2.9 0.056
27 15:00 64.1 60.2 87 SW 11 G 17 29.86 1011.1 0.02 276 2.3 0.042
27 14:00 64.3 60.7 64.7 61.0 88 SSW 12 G 15 29.88 1011.7 0.02 682 4.3 0.031
27 13:00 63.7 60.1 88 SW 10 G 12 29.90 1012.6 0.02 318 3.4 0.020
27 12:00 63.7 61.3 92 SW 7 G 12 29.91 1012.9 0.02 645 5.6 0.013
27 11:00 61.5 59.8 94 SW 10 G 13 29.93 1013.6 0.02 141 1.5 0.009
27 10:00 61.1 59.4 94 SW 10 G 14 29.94 1014.1 0.02 114 1.2 0.006
27 09:00 61.2 59.8 95 SW 9 G 13 29.95 1014.4 0.02 120 1.0 0.003
27 08:00 61.3 60.2 61.5 60.2 96 SW 5 G 8 29.97 1014.9 0.01 0.02 0.02 0.02 100 0.7 0.001
27 07:00 61.4 60.2 96 W 8 G 11 29.99 1015.4 0.01 0.01 35 0.0 0.000
27 06:00 61.2 60.1 96 W 7 G 9 29.99 1015.6 0.00 7 0.0 0.000
27 05:00 60.5 59.6 97 WSW 4 G 10 29.99 1015.7 0.00 0 0.0 0.000
27 04:00 60.2 59.3 97 SW 3 G 5 30.00 1016.0 0.00 0 0.0 0.000
27 03:00 60.3 59.4 97 SW 4 G 5 30.01 1016.4 0.00 0 0.0 0.000
27 02:00 60.4 59.5 63.0 60.3 97 SW 4 G 5 30.03 1017.1 0.00 0 0.0 0.000
27 01:00 60.9 59.8 96 SW 2 G 4 30.05 1017.6 0.00 0 0.0 0.000
27 00:00 61.0 59.9 96 SW 5 G 9 30.07 1018.3 0.00 0 0.0 0.154
26 23:00 61.6 60.4 96 WSW 3 G 6 30.08 1018.7 0.00 0 0.0 0.154
26 22:00 61.3 59.9 95 WSW 4 G 7 30.10 1019.3 0.00 0 0.0 0.154
26 21:00 62.1 60.4 94 WSW 2 G 4 30.11 1019.7 0.00 0 0.0 0.154
26 20:00 63.0 60.6 69.2 62.9 92 WSW 2 G 5 30.10 1019.5 0.00 5 0.0 0.153
26 19:00 66.0 61.7 86 SW 2 G 4 30.11 1019.6 0.00 148 0.0 0.147
26 18:00 67.9 62.6 83 SW 3 G 5 30.12 1019.9 0.00 390 1.1 0.136
26 17:00 69.1 63.4 82 SW 4 G 7 30.13 1020.5 0.00 492 2.2 0.121
26 16:00 67.7 62.7 84 SW 3 G 5 30.15 1020.9 0.00 737 3.7 0.103
26 15:00 66.9 60.9 81 S 4 G 5 30.16 1021.2 0.00 872 5.5 0.082
26 14:00 67.6 61.2 69.2 61.6 80 SSE 2 G 5 30.16 1021.4 0.00 962 5.6 0.059
26 13:00 68.8 62.0 79 SSE 4 G 7 30.18 1022.1 0.00 988 7.8 0.038
26 12:00 68.3 61.9 80 S 4 G 5 30.19 1022.3 0.00 976 7.5 0.016
26 11:00 67.9 61.5 80 SSE 2 G 3 30.20 1022.7 0.00 905 6.4 0.006
26 10:00 63.2 59.3 87 ESE 2 G 3 30.21 1023.0 0.00 46 0.0 0.005
26 09:00 61.6 58.0 88 E 3 G 4 30.20 1022.7 0.00 40 0.0 0.004
26 08:00 62.9 57.7 63.4 54.0 83 ENE 4 G 8 30.20 1022.6 0.00 37 0.0 0.003
26 07:00 58.1 56.1 93 N 3 G 6 30.20 1022.6 0.00 32 0.0 0.002
26 06:00 55.3 54.2 96 NW 0 G 2 30.19 1022.4 0.00 35 0.0 0.002
26 05:00 54.6 53.2 95 W 2 G 2 30.17 1021.7 0.00 0 0.0 0.002
26 04:00 55.6 53.9 94 W 1 G 2 30.16 1021.5 0.00 0 0.0 0.002
26 03:00 57.0 55.0 93 W 2 G 3 30.16 1021.5 0.00 0 0.0 0.002
26 02:00 58.6 56.3 61.0 58.5 92 W 6 G 8 30.16 1021.4 0.00 0 0.0 0.001
26 01:00 59.0 56.4 91 W 5 G 8 30.17 1021.6 0.00 0 0.0 0.000
26 00:00 60.3 56.7 88 W 8 G 11 30.17 1021.6 0.00 0 0.0 0.153
25 23:00 60.6 57.3 89 W 7 G 12 30.16 1021.5 0.00 0 0.0 0.152
25 22:00 60.4 57.5 90 W 7 G 11 30.16 1021.3 0.00 0 0.0 0.151
25 21:00 60.5 57.2 89 W 6 G 10 30.16 1021.2 0.00 0 0.0 0.150
25 20:00 61.0 57.4 68.3 61.0 88 WSW 6 G 10 30.15 1020.9 0.00 7 0.0 0.148
25 19:00 63.7 58.8 84 SW 4 G 8 30.14 1020.7 0.00 142 0.0 0.142
25 18:00 66.1 59.4 79 SW 5 G 8 30.13 1020.4 0.00 366 1.0 0.131
25 17:00 66.6 59.9 79 SW 5 G 9 30.13 1020.4 0.00 561 2.1 0.115
25 16:00 67.4 61.0 80 SW 4 G 7 30.12 1019.9 0.00 763 3.6 0.099
25 15:00 66.1 60.1 81 SW 4 G 7 30.11 1019.6 0.00 478 4.6 0.084
25 14:00 64.4 58.4 67.6 57.9 81 SW 3 G 6 30.10 1019.3 0.00 318 3.2 0.069
25 13:00 67.2 59.8 77 SSE 3 G 5 30.09 1019.1 0.00 1071 5.7 0.048
25 12:00 64.1 56.7 77 ENE 6 G 9 30.09 1019.1 0.00 967 7.2 0.029
25 11:00 63.9 56.9 78 NNE 10 G 14 30.08 1018.8 0.00 485 5.8 0.019
25 10:00 60.4 55.5 84 N 6 G 10 30.08 1018.7 0.00 141 1.3 0.015
25 09:00 59.7 54.9 84 N 6 G 16 30.07 1018.3 0.00 232 1.5 0.009
25 08:00 57.9 54.1 57.9 55.0 87 N 5 G 12 30.06 1018.0 0.00 181 0.8 0.006

Data generated by WxSolution Version 1.9.0.6, Build 2017.01.14.